sensor_id;sensor_type;location;lat;lon;timestamp;temperature;humidity
21167;DHT22;10741;52.272;9.580;2023-07-08T00:00:46;15.90;99.90
21167;DHT22;10741;52.272;9.580;2023-07-08T00:03:16;15.90;99.90
21167;DHT22;10741;52.272;9.580;2023-07-08T00:05:43;15.80;99.90
21167;DHT22;10741;52.272;9.580;2023-07-08T00:08:20;15.80;99.90
21167;DHT22;10741;52.272;9.580;2023-07-08T00:10:46;15.80;99.90
21167;DHT22;10741;52.272;9.580;2023-07-08T00:13:12;15.80;99.90
21167;DHT22;10741;52.272;9.580;2023-07-08T00:15:39;15.90;99.90
21167;DHT22;10741;52.272;9.580;2023-07-08T00:18:13;15.90;99.90
21167;DHT22;10741;52.272;9.580;2023-07-08T00:20:50;15.80;99.90
21167;DHT22;10741;52.272;9.580;2023-07-08T00:23:16;15.80;99.90
21167;DHT22;10741;52.272;9.580;2023-07-08T00:25:42;15.80;99.90
21167;DHT22;10741;52.272;9.580;2023-07-08T00:28:15;15.80;99.90
21167;DHT22;10741;52.272;9.580;2023-07-08T00:30:41;15.70;99.90
21167;DHT22;10741;52.272;9.580;2023-07-08T00:33:07;15.70;99.90
21167;DHT22;10741;52.272;9.580;2023-07-08T00:35:43;15.60;99.90
21167;DHT22;10741;52.272;9.580;2023-07-08T00:38:15;15.60;99.90
21167;DHT22;10741;52.272;9.580;2023-07-08T00:41:04;15.60;99.90
21167;DHT22;10741;52.272;9.580;2023-07-08T00:49:26;15.60;99.90
21167;DHT22;10741;52.272;9.580;2023-07-08T00:51:53;15.60;99.90
21167;DHT22;10741;52.272;9.580;2023-07-08T00:54:20;15.70;99.90
21167;DHT22;10741;52.272;9.580;2023-07-08T00:57:00;15.70;99.90
21167;DHT22;10741;52.272;9.580;2023-07-08T00:59:37;15.60;99.90
21167;DHT22;10741;52.272;9.580;2023-07-08T01:02:07;15.60;99.90
21167;DHT22;10741;52.272;9.580;2023-07-08T01:05:01;15.50;99.90
21167;DHT22;10741;52.272;9.580;2023-07-08T01:07:30;15.40;99.90
21167;DHT22;10741;52.272;9.580;2023-07-08T01:10:03;15.30;99.90
21167;DHT22;10741;52.272;9.580;2023-07-08T01:12:42;15.30;99.90
21167;DHT22;10741;52.272;9.580;2023-07-08T01:15:09;15.20;99.90
21167;DHT22;10741;52.272;9.580;2023-07-08T01:17:35;15.20;99.90
21167;DHT22;10741;52.272;9.580;2023-07-08T01:20:03;15.20;99.90
21167;DHT22;10741;52.272;9.580;2023-07-08T01:22:39;15.20;99.90
21167;DHT22;10741;52.272;9.580;2023-07-08T01:25:06;15.10;99.90
21167;DHT22;10741;52.272;9.580;2023-07-08T01:27:35;15.10;99.90
21167;DHT22;10741;52.272;9.580;2023-07-08T01:30:03;15.10;99.90
21167;DHT22;10741;52.272;9.580;2023-07-08T01:32:29;15.10;99.90
21167;DHT22;10741;52.272;9.580;2023-07-08T01:35:01;15.00;99.90
21167;DHT22;10741;52.272;9.580;2023-07-08T01:37:36;15.00;99.90
21167;DHT22;10741;52.272;9.580;2023-07-08T01:42:47;14.90;99.90
21167;DHT22;10741;52.272;9.580;2023-07-08T01:45:15;14.90;99.90
21167;DHT22;10741;52.272;9.580;2023-07-08T01:47:44;14.80;99.90
21167;DHT22;10741;52.272;9.580;2023-07-08T01:50:12;14.90;99.90
21167;DHT22;10741;52.272;9.580;2023-07-08T01:52:38;14.80;99.90
21167;DHT22;10741;52.272;9.580;2023-07-08T01:55:05;14.80;99.90
21167;DHT22;10741;52.272;9.580;2023-07-08T01:57:31;14.90;99.90
21167;DHT22;10741;52.272;9.580;2023-07-08T01:59:57;14.90;99.90
21167;DHT22;10741;52.272;9.580;2023-07-08T02:02:23;14.80;99.90
21167;DHT22;10741;52.272;9.580;2023-07-08T02:04:50;14.80;99.90
21167;DHT22;10741;52.272;9.580;2023-07-08T02:07:15;14.80;99.90
21167;DHT22;10741;52.272;9.580;2023-07-08T02:09:41;14.80;99.90
21167;DHT22;10741;52.272;9.580;2023-07-08T02:12:07;14.70;99.90
21167;DHT22;10741;52.272;9.580;2023-07-08T02:14:33;14.60;99.90
21167;DHT22;10741;52.272;9.580;2023-07-08T02:16:59;14.60;99.90
21167;DHT22;10741;52.272;9.580;2023-07-08T02:19:25;14.60;99.90
21167;DHT22;10741;52.272;9.580;2023-07-08T02:21:51;14.40;99.90
21167;DHT22;10741;52.272;9.580;2023-07-08T02:24:20;14.40;99.90
21167;DHT22;10741;52.272;9.580;2023-07-08T02:26:47;14.40;99.90
21167;DHT22;10741;52.272;9.580;2023-07-08T02:29:13;14.40;99.90
21167;DHT22;10741;52.272;9.580;2023-07-08T02:31:39;14.40;99.90
21167;DHT22;10741;52.272;9.580;2023-07-08T02:34:04;14.40;99.90
21167;DHT22;10741;52.272;9.580;2023-07-08T02:36:30;14.40;99.90
21167;DHT22;10741;52.272;9.580;2023-07-08T02:38:56;14.40;99.90
21167;DHT22;10741;52.272;9.580;2023-07-08T02:41:22;14.30;99.90
21167;DHT22;10741;52.272;9.580;2023-07-08T02:43:47;14.30;99.90
21167;DHT22;10741;52.272;9.580;2023-07-08T02:46:13;14.30;99.90
21167;DHT22;10741;52.272;9.580;2023-07-08T02:48:39;14.30;99.90
21167;DHT22;10741;52.272;9.580;2023-07-08T02:51:05;14.30;99.90
21167;DHT22;10741;52.272;9.580;2023-07-08T02:53:31;14.30;99.90
21167;DHT22;10741;52.272;9.580;2023-07-08T02:55:57;14.20;99.90
21167;DHT22;10741;52.272;9.580;2023-07-08T02:58:24;14.30;99.90
21167;DHT22;10741;52.272;9.580;2023-07-08T03:00:54;14.30;99.90
21167;DHT22;10741;52.272;9.580;2023-07-08T03:03:20;14.30;99.90
21167;DHT22;10741;52.272;9.580;2023-07-08T03:05:56;14.30;99.90
21167;DHT22;10741;52.272;9.580;2023-07-08T03:08:24;14.20;99.90
21167;DHT22;10741;52.272;9.580;2023-07-08T03:11:02;14.20;99.90
21167;DHT22;10741;52.272;9.580;2023-07-08T03:13:28;14.20;99.90
21167;DHT22;10741;52.272;9.580;2023-07-08T03:15:55;14.10;99.90
21167;DHT22;10741;52.272;9.580;2023-07-08T03:18:22;14.10;99.90
21167;DHT22;10741;52.272;9.580;2023-07-08T03:20:49;14.00;99.90
21167;DHT22;10741;52.272;9.580;2023-07-08T03:23:15;14.10;99.90
21167;DHT22;10741;52.272;9.580;2023-07-08T03:25:41;14.00;99.90
21167;DHT22;10741;52.272;9.580;2023-07-08T03:28:08;14.00;99.90
21167;DHT22;10741;52.272;9.580;2023-07-08T03:30:40;14.00;99.90
21167;DHT22;10741;52.272;9.580;2023-07-08T03:33:06;14.00;99.90
21167;DHT22;10741;52.272;9.580;2023-07-08T03:35:32;14.00;99.90
21167;DHT22;10741;52.272;9.580;2023-07-08T03:37:58;14.10;99.90
21167;DHT22;10741;52.272;9.580;2023-07-08T03:40:23;14.10;99.90
21167;DHT22;10741;52.272;9.580;2023-07-08T03:42:49;14.10;99.90
21167;DHT22;10741;52.272;9.580;2023-07-08T03:45:15;14.10;99.90
21167;DHT22;10741;52.272;9.580;2023-07-08T03:47:41;14.20;99.90
21167;DHT22;10741;52.272;9.580;2023-07-08T03:50:18;14.20;99.90
21167;DHT22;10741;52.272;9.580;2023-07-08T03:52:46;14.20;99.90
21167;DHT22;10741;52.272;9.580;2023-07-08T03:55:12;14.20;99.90
21167;DHT22;10741;52.272;9.580;2023-07-08T03:57:37;14.20;99.90
21167;DHT22;10741;52.272;9.580;2023-07-08T04:00:04;14.30;99.90
21167;DHT22;10741;52.272;9.580;2023-07-08T04:02:30;14.40;99.90
21167;DHT22;10741;52.272;9.580;2023-07-08T04:04:55;14.40;99.90
21167;DHT22;10741;52.272;9.580;2023-07-08T04:07:21;14.40;99.90
21167;DHT22;10741;52.272;9.580;2023-07-08T04:09:47;14.40;99.90
21167;DHT22;10741;52.272;9.580;2023-07-08T04:12:15;14.50;99.90
21167;DHT22;10741;52.272;9.580;2023-07-08T04:14:41;14.50;99.90
21167;DHT22;10741;52.272;9.580;2023-07-08T04:17:08;14.60;99.90
21167;DHT22;10741;52.272;9.580;2023-07-08T04:19:34;14.60;99.90
21167;DHT22;10741;52.272;9.580;2023-07-08T04:22:02;14.70;99.90
21167;DHT22;10741;52.272;9.580;2023-07-08T04:24:28;14.70;99.90
21167;DHT22;10741;52.272;9.580;2023-07-08T04:26:54;14.70;99.90
21167;DHT22;10741;52.272;9.580;2023-07-08T04:29:21;14.80;99.90
21167;DHT22;10741;52.272;9.580;2023-07-08T04:31:48;14.90;99.90
21167;DHT22;10741;52.272;9.580;2023-07-08T04:34:15;14.90;99.90
21167;DHT22;10741;52.272;9.580;2023-07-08T04:36:41;15.00;99.90
21167;DHT22;10741;52.272;9.580;2023-07-08T04:39:08;15.00;99.90
21167;DHT22;10741;52.272;9.580;2023-07-08T04:41:37;15.10;99.90
21167;DHT22;10741;52.272;9.580;2023-07-08T04:44:10;15.10;99.90
21167;DHT22;10741;52.272;9.580;2023-07-08T04:46:56;15.20;99.90
21167;DHT22;10741;52.272;9.580;2023-07-08T04:49:23;15.30;99.90
21167;DHT22;10741;52.272;9.580;2023-07-08T04:51:50;15.40;99.90
21167;DHT22;10741;52.272;9.580;2023-07-08T04:54:17;15.40;99.90
21167;DHT22;10741;52.272;9.580;2023-07-08T04:56:45;15.50;99.90
21167;DHT22;10741;52.272;9.580;2023-07-08T04:59:13;15.60;99.90
21167;DHT22;10741;52.272;9.580;2023-07-08T05:01:40;15.70;99.90
21167;DHT22;10741;52.272;9.580;2023-07-08T05:04:06;15.80;99.90
21167;DHT22;10741;52.272;9.580;2023-07-08T05:06:33;15.80;99.90
21167;DHT22;10741;52.272;9.580;2023-07-08T05:08:59;15.90;99.90
21167;DHT22;10741;52.272;9.580;2023-07-08T05:11:25;16.00;99.90
21167;DHT22;10741;52.272;9.580;2023-07-08T05:13:51;16.10;99.90
21167;DHT22;10741;52.272;9.580;2023-07-08T05:16:17;16.20;99.90
21167;DHT22;10741;52.272;9.580;2023-07-08T05:18:44;16.30;99.90
21167;DHT22;10741;52.272;9.580;2023-07-08T05:21:10;16.40;99.90
21167;DHT22;10741;52.272;9.580;2023-07-08T05:23:36;16.50;99.90
21167;DHT22;10741;52.272;9.580;2023-07-08T05:26:03;16.60;99.90
21167;DHT22;10741;52.272;9.580;2023-07-08T05:28:29;16.80;99.90
21167;DHT22;10741;52.272;9.580;2023-07-08T05:30:55;16.90;99.90
21167;DHT22;10741;52.272;9.580;2023-07-08T05:33:26;17.00;99.90
21167;DHT22;10741;52.272;9.580;2023-07-08T05:35:52;17.10;99.90
21167;DHT22;10741;52.272;9.580;2023-07-08T05:38:18;17.10;99.90
21167;DHT22;10741;52.272;9.580;2023-07-08T05:40:53;17.30;99.90
21167;DHT22;10741;52.272;9.580;2023-07-08T05:43:20;17.30;99.90
21167;DHT22;10741;52.272;9.580;2023-07-08T05:45:46;17.50;99.90
21167;DHT22;10741;52.272;9.580;2023-07-08T05:48:12;17.50;99.90
21167;DHT22;10741;52.272;9.580;2023-07-08T05:50:39;17.50;99.90
21167;DHT22;10741;52.272;9.580;2023-07-08T05:53:08;17.50;99.90
21167;DHT22;10741;52.272;9.580;2023-07-08T05:55:35;17.60;99.90
21167;DHT22;10741;52.272;9.580;2023-07-08T05:58:00;17.70;99.90
21167;DHT22;10741;52.272;9.580;2023-07-08T06:00:26;17.80;99.90
21167;DHT22;10741;52.272;9.580;2023-07-08T06:02:52;18.00;99.90
21167;DHT22;10741;52.272;9.580;2023-07-08T06:05:18;18.20;99.90
21167;DHT22;10741;52.272;9.580;2023-07-08T06:07:43;18.20;99.90
21167;DHT22;10741;52.272;9.580;2023-07-08T06:10:09;18.30;99.90
21167;DHT22;10741;52.272;9.580;2023-07-08T06:12:35;18.40;99.90
21167;DHT22;10741;52.272;9.580;2023-07-08T06:15:01;18.60;99.90
21167;DHT22;10741;52.272;9.580;2023-07-08T06:17:27;18.70;99.90
21167;DHT22;10741;52.272;9.580;2023-07-08T06:19:53;18.70;99.90
21167;DHT22;10741;52.272;9.580;2023-07-08T06:22:18;18.90;99.90
21167;DHT22;10741;52.272;9.580;2023-07-08T06:24:44;19.00;99.90
21167;DHT22;10741;52.272;9.580;2023-07-08T06:27:10;19.10;99.90
21167;DHT22;10741;52.272;9.580;2023-07-08T06:29:36;19.20;99.90
21167;DHT22;10741;52.272;9.580;2023-07-08T06:32:02;19.40;99.90
21167;DHT22;10741;52.272;9.580;2023-07-08T06:34:27;19.50;99.90
21167;DHT22;10741;52.272;9.580;2023-07-08T06:36:53;19.60;99.90
21167;DHT22;10741;52.272;9.580;2023-07-08T06:39:19;19.70;99.90
21167;DHT22;10741;52.272;9.580;2023-07-08T06:41:45;19.70;99.90
21167;DHT22;10741;52.272;9.580;2023-07-08T06:44:11;19.70;99.90
21167;DHT22;10741;52.272;9.580;2023-07-08T06:46:37;19.90;99.90
21167;DHT22;10741;52.272;9.580;2023-07-08T06:49:03;20.20;99.90
21167;DHT22;10741;52.272;9.580;2023-07-08T06:51:29;20.10;99.90
21167;DHT22;10741;52.272;9.580;2023-07-08T06:53:55;20.30;99.90
21167;DHT22;10741;52.272;9.580;2023-07-08T06:56:21;20.40;99.90
21167;DHT22;10741;52.272;9.580;2023-07-08T06:58:46;20.50;99.90
21167;DHT22;10741;52.272;9.580;2023-07-08T07:01:12;20.40;99.90
21167;DHT22;10741;52.272;9.580;2023-07-08T07:03:39;20.50;99.90
21167;DHT22;10741;52.272;9.580;2023-07-08T07:06:05;20.80;99.90
21167;DHT22;10741;52.272;9.580;2023-07-08T07:08:30;20.90;99.90
21167;DHT22;10741;52.272;9.580;2023-07-08T07:10:56;21.00;99.90
21167;DHT22;10741;52.272;9.580;2023-07-08T07:13:22;21.10;99.90
21167;DHT22;10741;52.272;9.580;2023-07-08T07:15:49;21.20;99.90
21167;DHT22;10741;52.272;9.580;2023-07-08T07:18:14;21.30;99.90
21167;DHT22;10741;52.272;9.580;2023-07-08T07:20:50;21.50;99.90
21167;DHT22;10741;52.272;9.580;2023-07-08T07:23:16;21.50;99.90
21167;DHT22;10741;52.272;9.580;2023-07-08T07:25:42;21.60;99.90
21167;DHT22;10741;52.272;9.580;2023-07-08T07:28:08;21.70;99.90
21167;DHT22;10741;52.272;9.580;2023-07-08T07:30:33;21.80;99.90
21167;DHT22;10741;52.272;9.580;2023-07-08T07:33:00;22.00;99.90
21167;DHT22;10741;52.272;9.580;2023-07-08T07:35:26;22.10;99.90
21167;DHT22;10741;52.272;9.580;2023-07-08T07:37:52;22.10;99.90
21167;DHT22;10741;52.272;9.580;2023-07-08T07:40:17;22.30;99.90
21167;DHT22;10741;52.272;9.580;2023-07-08T07:42:44;22.30;99.90
21167;DHT22;10741;52.272;9.580;2023-07-08T07:45:11;22.40;99.90
21167;DHT22;10741;52.272;9.580;2023-07-08T07:47:37;22.60;99.90
21167;DHT22;10741;52.272;9.580;2023-07-08T07:50:07;22.70;99.90
21167;DHT22;10741;52.272;9.580;2023-07-08T07:52:33;22.80;99.90
21167;DHT22;10741;52.272;9.580;2023-07-08T07:55:00;22.90;99.90
21167;DHT22;10741;52.272;9.580;2023-07-08T07:57:26;22.90;99.90
21167;DHT22;10741;52.272;9.580;2023-07-08T07:59:52;22.70;99.90
21167;DHT22;10741;52.272;9.580;2023-07-08T08:02:18;22.90;99.90
21167;DHT22;10741;52.272;9.580;2023-07-08T08:04:44;23.10;99.90
21167;DHT22;10741;52.272;9.580;2023-07-08T08:07:10;23.20;99.90
21167;DHT22;10741;52.272;9.580;2023-07-08T08:09:36;23.50;99.90
21167;DHT22;10741;52.272;9.580;2023-07-08T08:12:10;23.60;99.90
21167;DHT22;10741;52.272;9.580;2023-07-08T08:14:36;23.70;99.90
21167;DHT22;10741;52.272;9.580;2023-07-08T08:17:02;23.60;99.90
21167;DHT22;10741;52.272;9.580;2023-07-08T08:19:28;23.90;99.90
21167;DHT22;10741;52.272;9.580;2023-07-08T08:21:54;24.30;99.90
21167;DHT22;10741;52.272;9.580;2023-07-08T08:24:20;24.50;99.90
21167;DHT22;10741;52.272;9.580;2023-07-08T08:26:45;24.80;99.90
21167;DHT22;10741;52.272;9.580;2023-07-08T08:29:11;25.10;99.90
21167;DHT22;10741;52.272;9.580;2023-07-08T08:31:37;25.50;99.90
21167;DHT22;10741;52.272;9.580;2023-07-08T08:34:03;25.70;99.90
21167;DHT22;10741;52.272;9.580;2023-07-08T08:36:28;25.70;99.90
21167;DHT22;10741;52.272;9.580;2023-07-08T08:38:54;25.90;99.90
21167;DHT22;10741;52.272;9.580;2023-07-08T08:41:33;25.80;99.90
21167;DHT22;10741;52.272;9.580;2023-07-08T08:44:01;26.20;99.90
21167;DHT22;10741;52.272;9.580;2023-07-08T08:46:41;26.50;99.90
21167;DHT22;10741;52.272;9.580;2023-07-08T08:49:29;26.70;99.90
21167;DHT22;10741;52.272;9.580;2023-07-08T08:51:58;26.80;99.90
21167;DHT22;10741;52.272;9.580;2023-07-08T08:54:24;27.20;99.90
21167;DHT22;10741;52.272;9.580;2023-07-08T08:59:59;27.70;99.90
21167;DHT22;10741;52.272;9.580;2023-07-08T09:05:13;27.80;99.90
21167;DHT22;10741;52.272;9.580;2023-07-08T09:10:38;28.00;99.90
21167;DHT22;10741;52.272;9.580;2023-07-08T09:13:06;28.40;99.90
21167;DHT22;10741;52.272;9.580;2023-07-08T09:15:33;28.50;99.90
21167;DHT22;10741;52.272;9.580;2023-07-08T09:18:10;28.60;99.90
21167;DHT22;10741;52.272;9.580;2023-07-08T09:20:39;28.70;99.90
21167;DHT22;10741;52.272;9.580;2023-07-08T09:25:52;28.60;99.90
21167;DHT22;10741;52.272;9.580;2023-07-08T09:28:19;28.70;99.90
21167;DHT22;10741;52.272;9.580;2023-07-08T09:30:49;29.20;99.90
21167;DHT22;10741;52.272;9.580;2023-07-08T09:33:17;29.20;99.30
21167;DHT22;10741;52.272;9.580;2023-07-08T09:35:47;29.10;99.40
21167;DHT22;10741;52.272;9.580;2023-07-08T09:38:16;29.10;99.80
21167;DHT22;10741;52.272;9.580;2023-07-08T09:40:47;29.00;99.90
21167;DHT22;10741;52.272;9.580;2023-07-08T09:45:44;29.40;99.30
21167;DHT22;10741;52.272;9.580;2023-07-08T09:48:16;29.60;99.80
21167;DHT22;10741;52.272;9.580;2023-07-08T09:50:44;29.70;97.80
21167;DHT22;10741;52.272;9.580;2023-07-08T09:53:14;29.80;96.80
21167;DHT22;10741;52.272;9.580;2023-07-08T09:55:40;29.90;97.20
21167;DHT22;10741;52.272;9.580;2023-07-08T09:58:13;29.80;96.80
21167;DHT22;10741;52.272;9.580;2023-07-08T10:00:41;29.80;97.80
21167;DHT22;10741;52.272;9.580;2023-07-08T10:03:28;29.80;96.20
21167;DHT22;10741;52.272;9.580;2023-07-08T10:05:57;29.80;99.40
21167;DHT22;10741;52.272;9.580;2023-07-08T10:08:25;30.00;97.20
21167;DHT22;10741;52.272;9.580;2023-07-08T10:11:33;30.00;97.90
21167;DHT22;10741;52.272;9.580;2023-07-08T10:14:08;30.10;96.90
21167;DHT22;10741;52.272;9.580;2023-07-08T10:16:35;30.20;95.30
21167;DHT22;10741;52.272;9.580;2023-07-08T10:19:04;30.40;96.10
21167;DHT22;10741;52.272;9.580;2023-07-08T10:27:12;30.30;95.10
21167;DHT22;10741;52.272;9.580;2023-07-08T10:46:00;30.50;94.70
21167;DHT22;10741;52.272;9.580;2023-07-08T10:52:05;30.60;96.00
21167;DHT22;10741;52.272;9.580;2023-07-08T10:55:32;30.40;94.90
21167;DHT22;10741;52.272;9.580;2023-07-08T10:58:34;30.30;96.90
21167;DHT22;10741;52.272;9.580;2023-07-08T11:03:47;30.40;95.60
21167;DHT22;10741;52.272;9.580;2023-07-08T11:06:26;30.30;94.00
21167;DHT22;10741;52.272;9.580;2023-07-08T11:08:56;30.50;94.70
21167;DHT22;10741;52.272;9.580;2023-07-08T11:11:39;30.40;95.70
21167;DHT22;10741;52.272;9.580;2023-07-08T11:14:38;30.70;91.80
21167;DHT22;10741;52.272;9.580;2023-07-08T11:17:17;30.70;93.40
21167;DHT22;10741;52.272;9.580;2023-07-08T11:20:13;30.60;92.70
21167;DHT22;10741;52.272;9.580;2023-07-08T11:22:50;30.50;93.40
21167;DHT22;10741;52.272;9.580;2023-07-08T11:25:19;30.80;94.30
21167;DHT22;10741;52.272;9.580;2023-07-08T11:27:48;30.90;92.80
21167;DHT22;10741;52.272;9.580;2023-07-08T11:30:19;31.00;93.40
21167;DHT22;10741;52.272;9.580;2023-07-08T11:32:48;31.00;92.90
21167;DHT22;10741;52.272;9.580;2023-07-08T11:35:25;30.80;92.00
21167;DHT22;10741;52.272;9.580;2023-07-08T11:37:52;31.00;91.50
21167;DHT22;10741;52.272;9.580;2023-07-08T11:40:20;31.20;93.60
21167;DHT22;10741;52.272;9.580;2023-07-08T11:42:52;31.50;92.40
21167;DHT22;10741;52.272;9.580;2023-07-08T11:47:48;31.50;91.60
21167;DHT22;10741;52.272;9.580;2023-07-08T11:50:23;31.50;92.80
21167;DHT22;10741;52.272;9.580;2023-07-08T11:52:55;31.20;89.30
21167;DHT22;10741;52.272;9.580;2023-07-08T11:55:42;31.30;92.70
21167;DHT22;10741;52.272;9.580;2023-07-08T11:58:29;31.50;91.80
21167;DHT22;10741;52.272;9.580;2023-07-08T12:00:59;31.80;90.50
21167;DHT22;10741;52.272;9.580;2023-07-08T12:03:37;32.10;92.00
21167;DHT22;10741;52.272;9.580;2023-07-08T12:09:02;32.00;92.60
21167;DHT22;10741;52.272;9.580;2023-07-08T12:11:44;32.20;90.70
21167;DHT22;10741;52.272;9.580;2023-07-08T12:14:10;32.20;81.40
21167;DHT22;10741;52.272;9.580;2023-07-08T12:16:36;32.40;80.90
21167;DHT22;10741;52.272;9.580;2023-07-08T12:19:04;32.60;79.80
21167;DHT22;10741;52.272;9.580;2023-07-08T12:21:34;32.90;90.30
21167;DHT22;10741;52.272;9.580;2023-07-08T12:24:04;32.70;85.30
21167;DHT22;10741;52.272;9.580;2023-07-08T12:26:32;32.70;86.10
21167;DHT22;10741;52.272;9.580;2023-07-08T12:28:57;32.30;84.00
21167;DHT22;10741;52.272;9.580;2023-07-08T12:31:23;32.40;85.40
21167;DHT22;10741;52.272;9.580;2023-07-08T12:33:50;32.80;86.20
21167;DHT22;10741;52.272;9.580;2023-07-08T12:36:27;33.00;87.30
21167;DHT22;10741;52.272;9.580;2023-07-08T12:38:58;32.90;84.20
21167;DHT22;10741;52.272;9.580;2023-07-08T12:41:29;32.70;82.30
21167;DHT22;10741;52.272;9.580;2023-07-08T12:43:56;32.70;84.40
21167;DHT22;10741;52.272;9.580;2023-07-08T12:46:23;32.80;87.70
21167;DHT22;10741;52.272;9.580;2023-07-08T12:48:49;32.80;85.10
21167;DHT22;10741;52.272;9.580;2023-07-08T12:51:23;32.90;82.80
21167;DHT22;10741;52.272;9.580;2023-07-08T12:53:51;32.70;83.30
21167;DHT22;10741;52.272;9.580;2023-07-08T12:56:18;32.90;83.80
21167;DHT22;10741;52.272;9.580;2023-07-08T12:58:48;33.00;79.80
21167;DHT22;10741;52.272;9.580;2023-07-08T13:01:21;33.20;82.20
21167;DHT22;10741;52.272;9.580;2023-07-08T13:03:50;33.40;84.70
21167;DHT22;10741;52.272;9.580;2023-07-08T13:06:18;33.40;79.70
21167;DHT22;10741;52.272;9.580;2023-07-08T13:08:44;33.40;79.00
21167;DHT22;10741;52.272;9.580;2023-07-08T13:11:21;33.30;79.20
21167;DHT22;10741;52.272;9.580;2023-07-08T13:13:56;33.40;78.70
21167;DHT22;10741;52.272;9.580;2023-07-08T13:16:29;33.20;78.10
21167;DHT22;10741;52.272;9.580;2023-07-08T13:18:56;33.10;76.00
21167;DHT22;10741;52.272;9.580;2023-07-08T13:21:22;33.20;78.70
21167;DHT22;10741;52.272;9.580;2023-07-08T13:23:50;33.20;79.30
21167;DHT22;10741;52.272;9.580;2023-07-08T13:26:18;33.40;78.70
21167;DHT22;10741;52.272;9.580;2023-07-08T13:28:45;33.50;79.50
21167;DHT22;10741;52.272;9.580;2023-07-08T13:31:22;33.50;77.90
21167;DHT22;10741;52.272;9.580;2023-07-08T13:33:53;33.60;80.70
21167;DHT22;10741;52.272;9.580;2023-07-08T13:36:34;33.70;84.30
21167;DHT22;10741;52.272;9.580;2023-07-08T13:39:07;33.40;78.10
21167;DHT22;10741;52.272;9.580;2023-07-08T13:41:34;33.60;81.40
21167;DHT22;10741;52.272;9.580;2023-07-08T13:44:07;33.50;80.00
21167;DHT22;10741;52.272;9.580;2023-07-08T13:49:22;33.30;76.70
21167;DHT22;10741;52.272;9.580;2023-07-08T13:51:48;33.30;77.80
21167;DHT22;10741;52.272;9.580;2023-07-08T13:54:26;33.30;77.10
21167;DHT22;10741;52.272;9.580;2023-07-08T13:57:00;33.30;79.20
21167;DHT22;10741;52.272;9.580;2023-07-08T13:59:26;33.00;75.00
21167;DHT22;10741;52.272;9.580;2023-07-08T14:01:55;32.90;75.60
21167;DHT22;10741;52.272;9.580;2023-07-08T14:04:30;33.20;76.00
21167;DHT22;10741;52.272;9.580;2023-07-08T14:06:57;33.30;78.60
21167;DHT22;10741;52.272;9.580;2023-07-08T14:09:23;33.40;72.70
21167;DHT22;10741;52.272;9.580;2023-07-08T14:11:51;33.50;78.10
21167;DHT22;10741;52.272;9.580;2023-07-08T14:14:17;33.30;76.50
21167;DHT22;10741;52.272;9.580;2023-07-08T14:16:49;33.20;75.70
21167;DHT22;10741;52.272;9.580;2023-07-08T14:19:22;33.30;78.40
21167;DHT22;10741;52.272;9.580;2023-07-08T14:21:53;33.30;78.90
21167;DHT22;10741;52.272;9.580;2023-07-08T14:24:19;33.20;72.30
21167;DHT22;10741;52.272;9.580;2023-07-08T14:26:45;33.20;75.60
21167;DHT22;10741;52.272;9.580;2023-07-08T14:29:11;33.30;75.50
21167;DHT22;10741;52.272;9.580;2023-07-08T14:31:39;33.30;78.50
21167;DHT22;10741;52.272;9.580;2023-07-08T14:34:28;33.20;76.40
21167;DHT22;10741;52.272;9.580;2023-07-08T14:36:54;33.50;78.30
21167;DHT22;10741;52.272;9.580;2023-07-08T14:39:20;33.30;76.50
21167;DHT22;10741;52.272;9.580;2023-07-08T14:41:48;33.10;73.50
21167;DHT22;10741;52.272;9.580;2023-07-08T14:44:23;33.00;76.60
21167;DHT22;10741;52.272;9.580;2023-07-08T14:46:51;32.90;74.60
21167;DHT22;10741;52.272;9.580;2023-07-08T14:49:22;32.90;71.20
21167;DHT22;10741;52.272;9.580;2023-07-08T14:51:49;32.60;74.30
21167;DHT22;10741;52.272;9.580;2023-07-08T14:54:16;32.70;77.20
21167;DHT22;10741;52.272;9.580;2023-07-08T14:56:42;32.60;79.50
21167;DHT22;10741;52.272;9.580;2023-07-08T14:59:21;32.40;78.70
21167;DHT22;10741;52.272;9.580;2023-07-08T15:01:47;32.20;78.60
21167;DHT22;10741;52.272;9.580;2023-07-08T15:04:16;32.10;77.90
21167;DHT22;10741;52.272;9.580;2023-07-08T15:06:42;31.90;77.00
21167;DHT22;10741;52.272;9.580;2023-07-08T15:09:09;31.70;77.70
21167;DHT22;10741;52.272;9.580;2023-07-08T15:11:36;31.60;79.70
21167;DHT22;10741;52.272;9.580;2023-07-08T15:14:05;31.50;79.50
21167;DHT22;10741;52.272;9.580;2023-07-08T15:16:34;31.50;80.80
21167;DHT22;10741;52.272;9.580;2023-07-08T15:19:00;31.40;79.00
21167;DHT22;10741;52.272;9.580;2023-07-08T15:21:26;31.30;77.60
21167;DHT22;10741;52.272;9.580;2023-07-08T15:23:52;31.20;80.10
21167;DHT22;10741;52.272;9.580;2023-07-08T15:26:18;31.00;78.60
21167;DHT22;10741;52.272;9.580;2023-07-08T15:28:46;30.90;75.40
21167;DHT22;10741;52.272;9.580;2023-07-08T15:31:19;30.90;75.80
21167;DHT22;10741;52.272;9.580;2023-07-08T15:33:46;30.70;79.30
21167;DHT22;10741;52.272;9.580;2023-07-08T15:36:12;30.60;77.40
21167;DHT22;10741;52.272;9.580;2023-07-08T15:38:42;30.50;80.40
21167;DHT22;10741;52.272;9.580;2023-07-08T15:41:23;30.50;81.60
21167;DHT22;10741;52.272;9.580;2023-07-08T15:43:49;30.40;80.90
21167;DHT22;10741;52.272;9.580;2023-07-08T15:46:18;30.50;81.60
21167;DHT22;10741;52.272;9.580;2023-07-08T15:48:43;30.40;82.70
21167;DHT22;10741;52.272;9.580;2023-07-08T15:51:14;30.40;84.30
21167;DHT22;10741;52.272;9.580;2023-07-08T15:53:40;30.30;79.80
21167;DHT22;10741;52.272;9.580;2023-07-08T15:56:12;30.30;78.50
21167;DHT22;10741;52.272;9.580;2023-07-08T15:58:40;30.30;79.10
21167;DHT22;10741;52.272;9.580;2023-07-08T16:01:10;30.20;80.50
21167;DHT22;10741;52.272;9.580;2023-07-08T16:03:38;30.20;81.50
21167;DHT22;10741;52.272;9.580;2023-07-08T16:06:04;30.10;79.40
21167;DHT22;10741;52.272;9.580;2023-07-08T16:08:30;30.10;78.60
21167;DHT22;10741;52.272;9.580;2023-07-08T16:11:03;30.00;80.00
21167;DHT22;10741;52.272;9.580;2023-07-08T16:13:34;30.00;79.80
21167;DHT22;10741;52.272;9.580;2023-07-08T16:16:01;30.00;80.50
21167;DHT22;10741;52.272;9.580;2023-07-08T16:18:27;29.90;81.90
21167;DHT22;10741;52.272;9.580;2023-07-08T16:20:53;29.90;83.40
21167;DHT22;10741;52.272;9.580;2023-07-08T16:23:18;29.80;82.60
21167;DHT22;10741;52.272;9.580;2023-07-08T16:25:47;29.80;81.40
21167;DHT22;10741;52.272;9.580;2023-07-08T16:28:24;29.80;83.10
21167;DHT22;10741;52.272;9.580;2023-07-08T16:30:53;29.80;83.10
21167;DHT22;10741;52.272;9.580;2023-07-08T16:33:19;29.80;83.50
21167;DHT22;10741;52.272;9.580;2023-07-08T16:35:44;29.80;83.00
21167;DHT22;10741;52.272;9.580;2023-07-08T16:38:10;29.70;81.30
21167;DHT22;10741;52.272;9.580;2023-07-08T16:40:36;29.60;81.30